createdAt,value
2023-11-03T00:00:35.624Z,100.00
2023-11-03T00:03:23.389Z,100.00
2023-11-03T00:05:50.398Z,100.00
2023-11-03T00:08:18.528Z,100.00
2023-11-03T00:10:45.222Z,100.00
2023-11-03T00:13:12.308Z,100.00
2023-11-03T00:15:39.053Z,100.00
2023-11-03T00:18:08.051Z,100.00
2023-11-03T00:20:35.484Z,100.00
2023-11-03T00:23:02.465Z,100.00
2023-11-03T00:25:29.138Z,100.00
2023-11-03T00:27:56.388Z,100.00
2023-11-03T00:30:23.153Z,100.00
2023-11-03T00:32:50.152Z,100.00
2023-11-03T00:35:17.326Z,100.00
2023-11-03T00:37:45.780Z,100.00
2023-11-03T00:40:14.443Z,100.00
2023-11-03T00:42:41.789Z,100.00
2023-11-03T00:45:08.736Z,100.00
2023-11-03T00:47:35.879Z,100.00
2023-11-03T00:50:02.904Z,100.00
2023-11-03T00:52:29.851Z,100.00
2023-11-03T00:54:56.820Z,100.00
2023-11-03T00:57:24.279Z,100.00
2023-11-03T00:59:51.171Z,100.00
2023-11-03T01:02:19.205Z,100.00
2023-11-03T01:04:46.623Z,100.00
2023-11-03T01:07:14.097Z,100.00
2023-11-03T01:09:42.483Z,100.00
2023-11-03T01:12:09.850Z,100.00
2023-11-03T01:14:36.582Z,100.00
2023-11-03T01:17:04.111Z,100.00
2023-11-03T01:19:32.488Z,100.00
2023-11-03T01:22:00.966Z,100.00
2023-11-03T01:24:27.989Z,100.00
2023-11-03T01:26:54.956Z,100.00
2023-11-03T01:29:21.605Z,100.00
2023-11-03T01:31:48.634Z,100.00
2023-11-03T01:34:15.374Z,100.00
2023-11-03T01:36:42.410Z,100.00
2023-11-03T01:39:09.444Z,100.00
2023-11-03T01:41:36.568Z,100.00
2023-11-03T01:44:08.355Z,100.00
2023-11-03T01:46:37.440Z,100.00
2023-11-03T01:49:06.467Z,100.00
2023-11-03T01:51:36.982Z,100.00
2023-11-03T01:54:05.082Z,100.00
2023-11-03T01:56:34.412Z,100.00
2023-11-03T01:59:03.266Z,100.00
2023-11-03T02:01:30.964Z,100.00
2023-11-03T02:03:57.720Z,100.00
2023-11-03T02:06:25.210Z,100.00
2023-11-03T02:08:51.830Z,100.00
2023-11-03T02:11:29.599Z,100.00
2023-11-03T02:13:56.981Z,100.00
2023-11-03T02:16:24.839Z,100.00
2023-11-03T02:18:52.204Z,100.00
2023-11-03T02:21:19.390Z,100.00
2023-11-03T02:23:46.099Z,100.00
2023-11-03T02:26:13.051Z,100.00
2023-11-03T02:28:39.766Z,100.00
2023-11-03T02:31:06.737Z,100.00
2023-11-03T02:33:33.517Z,100.00
2023-11-03T02:36:00.486Z,100.00
2023-11-03T02:38:27.272Z,100.00
2023-11-03T02:40:56.000Z,100.00
2023-11-03T02:43:23.580Z,100.00
2023-11-03T02:45:53.689Z,100.00
2023-11-03T02:48:20.666Z,100.00
2023-11-03T02:50:47.630Z,100.00
2023-11-03T02:53:14.547Z,100.00
2023-11-03T02:55:41.505Z,100.00
2023-11-03T02:58:08.789Z,100.00
2023-11-03T03:00:36.885Z,100.00
2023-11-03T03:03:07.404Z,100.00
2023-11-03T03:05:35.556Z,100.00
2023-11-03T03:08:06.332Z,100.00
2023-11-03T03:10:34.017Z,100.00
2023-11-03T03:13:03.668Z,100.00
2023-11-03T03:15:30.925Z,100.00
2023-11-03T03:17:58.041Z,100.00
2023-11-03T03:20:26.490Z,100.00
2023-11-03T03:22:53.548Z,100.00
2023-11-03T03:25:20.206Z,100.00
2023-11-03T03:27:47.206Z,100.00
2023-11-03T03:30:14.173Z,100.00
2023-11-03T03:32:41.539Z,100.00
2023-11-03T03:35:08.741Z,100.00
2023-11-03T03:37:35.740Z,100.00
2023-11-03T03:40:02.406Z,100.00
2023-11-03T03:42:29.503Z,100.00
2023-11-03T03:44:56.184Z,100.00
2023-11-03T03:47:23.547Z,100.00
2023-11-03T03:49:50.268Z,100.00
2023-11-03T03:52:17.242Z,100.00
2023-11-03T03:54:44.008Z,100.00
2023-11-03T03:57:10.919Z,100.00
2023-11-03T03:59:38.105Z,100.00
2023-11-03T04:02:05.171Z,100.00
2023-11-03T04:04:32.028Z,100.00
2023-11-03T04:06:59.018Z,100.00
2023-11-03T04:09:25.998Z,100.00
2023-11-03T04:11:52.957Z,100.00
2023-11-03T04:14:20.122Z,100.00
2023-11-03T04:16:47.089Z,100.00
2023-11-03T04:19:13.846Z,100.00
2023-11-03T04:21:43.600Z,100.00
2023-11-03T04:24:10.561Z,100.00
2023-11-03T04:26:37.731Z,100.00
2023-11-03T04:29:04.513Z,100.00
2023-11-03T04:31:31.583Z,100.00
2023-11-03T04:33:58.494Z,100.00
2023-11-03T04:36:25.573Z,100.00
2023-11-03T04:38:52.232Z,100.00
2023-11-03T04:41:19.542Z,100.00
2023-11-03T04:43:47.600Z,100.00
2023-11-03T04:46:14.802Z,100.00
2023-11-03T04:48:41.511Z,100.00
2023-11-03T04:51:09.430Z,100.00
2023-11-03T04:53:36.157Z,100.00
2023-11-03T04:56:03.279Z,100.00
2023-11-03T04:58:29.966Z,100.00
2023-11-03T05:00:57.028Z,100.00
2023-11-03T05:03:23.879Z,100.00
2023-11-03T05:05:50.909Z,100.00
2023-11-03T05:08:17.644Z,100.00
2023-11-03T05:10:44.646Z,100.00
2023-11-03T05:13:11.348Z,100.00
2023-11-03T05:15:38.304Z,100.00
2023-11-03T05:18:05.126Z,100.00
2023-11-03T05:20:32.149Z,100.00
2023-11-03T05:22:59.643Z,100.00
2023-11-03T05:25:26.719Z,100.00
2023-11-03T05:27:54.076Z,100.00
2023-11-03T05:30:22.804Z,100.00
2023-11-03T05:32:50.496Z,100.00
2023-11-03T05:35:17.587Z,100.00
2023-11-03T05:37:45.874Z,100.00
2023-11-03T05:40:13.482Z,100.00
2023-11-03T05:42:40.329Z,100.00
2023-11-03T05:45:07.920Z,100.00
2023-11-03T05:47:34.677Z,100.00
2023-11-03T05:50:01.803Z,100.00
2023-11-03T05:52:28.587Z,100.00
2023-11-03T05:54:55.582Z,100.00
2023-11-03T05:57:22.276Z,100.00
2023-11-03T05:59:49.766Z,100.00
2023-11-03T06:02:17.056Z,100.00
2023-11-03T06:04:44.066Z,100.00
2023-11-03T06:07:10.840Z,100.00
2023-11-03T06:09:39.102Z,100.00
2023-11-03T06:12:08.028Z,100.00
2023-11-03T06:14:35.088Z,100.00
2023-11-03T06:17:02.014Z,100.00
2023-11-03T06:19:29.074Z,100.00
2023-11-03T06:21:55.785Z,100.00
2023-11-03T06:24:22.851Z,100.00
2023-11-03T06:26:49.488Z,100.00
2023-11-03T06:29:16.416Z,100.00
2023-11-03T06:31:43.085Z,100.00
2023-11-03T06:34:10.260Z,100.00
2023-11-03T06:36:44.853Z,100.00
2023-11-03T06:39:17.057Z,100.00
2023-11-03T06:41:44.771Z,100.00
2023-11-03T06:44:12.944Z,100.00
2023-11-03T06:46:40.305Z,100.00
2023-11-03T06:49:07.790Z,100.00
2023-11-03T06:51:34.826Z,100.00
2023-11-03T06:54:02.422Z,100.00
2023-11-03T06:56:29.298Z,100.00
2023-11-03T06:58:56.583Z,100.00
2023-11-03T07:01:25.029Z,100.00
2023-11-03T07:03:52.852Z,100.00
2023-11-03T07:06:21.787Z,100.00
2023-11-03T07:08:48.882Z,100.00
2023-11-03T07:11:15.918Z,100.00
2023-11-03T07:13:44.185Z,100.00
2023-11-03T07:16:11.344Z,100.00
2023-11-03T07:18:38.471Z,100.00
2023-11-03T07:21:14.056Z,100.00
2023-11-03T07:23:41.419Z,100.00
2023-11-03T07:26:08.642Z,100.00
2023-11-03T07:28:35.864Z,100.00
2023-11-03T07:31:04.628Z,100.00
2023-11-03T07:33:33.202Z,100.00
2023-11-03T07:36:00.980Z,100.00
2023-11-03T07:38:29.189Z,100.00
2023-11-03T07:40:56.323Z,100.00
2023-11-03T07:43:23.518Z,100.00
2023-11-03T07:45:51.629Z,100.00
2023-11-03T07:48:19.551Z,100.00
2023-11-03T07:50:46.353Z,100.00
2023-11-03T07:53:13.432Z,100.00
2023-11-03T07:55:40.196Z,100.00
2023-11-03T07:58:07.260Z,100.00
2023-11-03T08:00:35.940Z,100.00
2023-11-03T08:03:05.439Z,100.00
2023-11-03T08:05:32.706Z,100.00
2023-11-03T08:07:59.675Z,100.00
2023-11-03T08:10:26.724Z,100.00
2023-11-03T08:12:55.222Z,100.00
2023-11-03T08:15:21.949Z,100.00
2023-11-03T08:17:48.941Z,100.00
2023-11-03T08:20:17.047Z,100.00
2023-11-03T08:22:45.803Z,100.00
2023-11-03T08:25:13.240Z,100.00
2023-11-03T08:27:40.521Z,100.00
2023-11-03T08:30:11.047Z,100.00
2023-11-03T08:32:38.230Z,100.00
2023-11-03T08:35:06.669Z,100.00
2023-11-03T08:37:34.495Z,100.00
2023-11-03T08:40:02.019Z,100.00
2023-11-03T08:42:29.480Z,100.00
2023-11-03T08:44:56.264Z,100.00
2023-11-03T08:47:23.263Z,100.00
2023-11-03T08:49:50.035Z,100.00
2023-11-03T08:52:17.156Z,100.00
2023-11-03T08:54:43.874Z,100.00
2023-11-03T08:57:11.009Z,100.00
2023-11-03T08:59:38.257Z,100.00
2023-11-03T09:02:06.976Z,100.00
2023-11-03T09:04:33.961Z,100.00
2023-11-03T09:07:01.218Z,100.00
2023-11-03T09:09:28.368Z,100.00
2023-11-03T09:11:55.498Z,100.00
2023-11-03T09:14:22.227Z,100.00
2023-11-03T09:16:49.181Z,100.00
2023-11-03T09:19:16.279Z,100.00
2023-11-03T09:21:43.289Z,100.00
2023-11-03T09:24:09.996Z,100.00
2023-11-03T09:26:36.978Z,100.00
2023-11-03T09:29:03.707Z,100.00
2023-11-03T09:31:30.967Z,100.00
2023-11-03T09:33:58.219Z,100.00
2023-11-03T09:36:25.328Z,100.00
2023-11-03T09:38:52.082Z,100.00
2023-11-03T09:41:20.991Z,100.00
2023-11-03T09:43:48.684Z,100.00
2023-11-03T09:46:15.819Z,100.00
2023-11-03T09:48:43.289Z,100.00
2023-11-03T09:51:11.961Z,100.00
2023-11-03T09:53:39.215Z,100.00
2023-11-03T09:56:07.682Z,100.00
2023-11-03T09:58:35.955Z,100.00
2023-11-03T10:01:05.676Z,100.00
2023-11-03T10:03:33.204Z,100.00
2023-11-03T10:06:04.069Z,100.00
2023-11-03T10:08:30.759Z,100.00
2023-11-03T10:10:59.283Z,100.00
2023-11-03T10:13:26.427Z,100.00
2023-11-03T10:15:53.621Z,100.00
2023-11-03T10:18:20.375Z,100.00
2023-11-03T10:20:47.787Z,100.00
2023-11-03T10:23:14.981Z,100.00
2023-11-03T10:25:45.917Z,100.00
2023-11-03T10:28:12.771Z,100.00
2023-11-03T10:30:39.760Z,100.00
2023-11-03T10:33:07.762Z,100.00
2023-11-03T10:35:34.883Z,100.00
2023-11-03T10:38:03.096Z,100.00
2023-11-03T10:40:30.086Z,99.42
2023-11-03T10:42:57.442Z,100.00
2023-11-03T10:45:31.677Z,100.00
2023-11-03T10:48:15.657Z,98.27
2023-11-03T10:50:46.787Z,99.58
2023-11-03T10:53:25.096Z,100.00
2023-11-03T10:56:21.525Z,100.00
2023-11-03T10:58:53.541Z,99.18
2023-11-03T11:01:27.119Z,99.22
2023-11-03T11:04:01.631Z,98.63
2023-11-03T11:06:37.880Z,99.58
2023-11-03T11:09:35.382Z,99.08
2023-11-03T11:12:05.672Z,98.74
2023-11-03T11:14:36.249Z,98.58
2023-11-03T11:17:04.794Z,97.54
2023-11-03T11:19:51.596Z,98.13
2023-11-03T11:22:19.848Z,97.45
2023-11-03T11:24:48.001Z,97.02
2023-11-03T11:27:26.114Z,95.58
2023-11-03T11:30:20.933Z,96.30
2023-11-03T11:32:55.318Z,97.15
2023-11-03T11:35:25.154Z,96.01
2023-11-03T11:37:52.114Z,95.96
2023-11-03T11:40:19.362Z,96.55
2023-11-03T11:42:46.917Z,96.11
2023-11-03T11:45:19.007Z,97.12
2023-11-03T11:47:48.251Z,96.27
2023-11-03T11:50:17.735Z,93.98
2023-11-03T11:52:47.266Z,95.18
2023-11-03T11:55:17.712Z,95.89
2023-11-03T11:57:45.219Z,95.28
2023-11-03T12:00:19.109Z,95.75
2023-11-03T12:02:50.655Z,95.38
2023-11-03T12:05:17.950Z,94.75
2023-11-03T12:07:46.956Z,95.72
2023-11-03T12:10:14.737Z,94.35
2023-11-03T12:12:42.328Z,95.74
2023-11-03T12:15:09.478Z,95.90
2023-11-03T12:17:36.492Z,96.06
2023-11-03T12:20:03.969Z,95.17
2023-11-03T12:22:33.215Z,94.89
2023-11-03T12:25:00.079Z,95.58
2023-11-03T12:27:27.051Z,95.58
2023-11-03T12:30:03.665Z,96.10
2023-11-03T12:32:34.572Z,94.70
2023-11-03T12:35:01.390Z,94.69
2023-11-03T12:37:29.346Z,95.70
2023-11-03T12:39:57.106Z,95.46
2023-11-03T12:42:25.230Z,94.73
2023-11-03T12:45:00.839Z,95.81
2023-11-03T12:47:45.877Z,96.56
2023-11-03T12:50:19.026Z,96.69
2023-11-03T12:52:56.285Z,96.59
2023-11-03T12:55:28.253Z,96.08
2023-11-03T12:57:57.380Z,95.22
2023-11-03T13:00:25.741Z,94.23
2023-11-03T13:02:54.012Z,94.68
2023-11-03T13:05:21.002Z,95.54
2023-11-03T13:08:00.861Z,94.98
2023-11-03T13:10:29.729Z,95.21
2023-11-03T13:12:56.986Z,95.77
2023-11-03T13:15:24.174Z,94.65
2023-11-03T13:17:52.081Z,96.86
2023-11-03T13:20:19.869Z,96.07
2023-11-03T13:22:50.217Z,95.21
2023-11-03T13:25:17.481Z,96.34
2023-11-03T13:27:44.918Z,96.07
2023-11-03T13:30:12.583Z,97.15
2023-11-03T13:32:42.820Z,97.18
2023-11-03T13:35:11.108Z,97.57
2023-11-03T13:37:38.732Z,98.00
2023-11-03T13:40:08.262Z,98.67
2023-11-03T13:42:35.426Z,98.08
2023-11-03T13:45:02.862Z,98.49
2023-11-03T13:47:30.040Z,98.17
2023-11-03T13:50:03.867Z,98.06
2023-11-03T13:52:35.983Z,99.09
2023-11-03T13:55:03.217Z,99.62
2023-11-03T13:57:30.239Z,99.54
2023-11-03T13:59:56.947Z,99.90
2023-11-03T14:02:25.467Z,98.56
2023-11-03T14:04:53.927Z,99.57
2023-11-03T14:07:21.441Z,98.83
2023-11-03T14:09:51.282Z,99.97
2023-11-03T14:12:21.377Z,97.79
2023-11-03T14:14:49.842Z,97.64
2023-11-03T14:17:16.801Z,97.93
2023-11-03T14:19:43.523Z,97.67
2023-11-03T14:22:11.017Z,99.11
2023-11-03T14:24:38.212Z,99.83
2023-11-03T14:27:07.483Z,99.31
2023-11-03T14:29:35.271Z,100.00
2023-11-03T14:32:02.838Z,100.00
2023-11-03T14:34:47.707Z,100.00
2023-11-03T14:37:15.333Z,100.00
2023-11-03T14:39:42.099Z,100.00
2023-11-03T14:42:09.174Z,100.00
2023-11-03T14:44:37.878Z,100.00
2023-11-03T14:47:05.189Z,100.00
2023-11-03T14:49:32.023Z,100.00
2023-11-03T14:51:59.082Z,100.00
2023-11-03T14:54:25.845Z,100.00
2023-11-03T14:56:53.371Z,100.00
2023-11-03T14:59:20.198Z,100.00
2023-11-03T15:01:47.308Z,100.00
2023-11-03T15:04:14.285Z,100.00
2023-11-03T15:06:41.438Z,100.00
2023-11-03T15:09:08.099Z,100.00
2023-11-03T15:11:35.143Z,100.00
2023-11-03T15:14:02.046Z,100.00
2023-11-03T15:16:30.636Z,100.00
2023-11-03T15:18:58.709Z,100.00
2023-11-03T15:21:26.157Z,100.00
2023-11-03T15:23:53.401Z,100.00
2023-11-03T15:26:20.664Z,100.00
2023-11-03T15:28:47.409Z,100.00
2023-11-03T15:31:15.038Z,100.00
2023-11-03T15:33:41.950Z,100.00
2023-11-03T15:36:09.577Z,100.00
2023-11-03T15:38:36.744Z,100.00
2023-11-03T15:41:04.843Z,100.00
2023-11-03T15:43:36.245Z,100.00
2023-11-03T15:46:05.153Z,100.00
2023-11-03T15:48:34.095Z,100.00
2023-11-03T15:51:04.100Z,100.00
2023-11-03T15:53:30.857Z,100.00
2023-11-03T15:55:58.880Z,100.00
2023-11-03T15:58:25.877Z,100.00
2023-11-03T16:00:55.656Z,100.00
2023-11-03T16:03:23.694Z,100.00
2023-11-03T16:05:51.688Z,100.00
2023-11-03T16:08:18.623Z,100.00
2023-11-03T16:10:46.443Z,100.00
2023-11-03T16:13:14.911Z,100.00
2023-11-03T16:15:42.347Z,100.00
2023-11-03T16:18:09.682Z,100.00
2023-11-03T16:20:41.596Z,100.00
2023-11-03T16:23:08.457Z,100.00
2023-11-03T16:25:35.693Z,100.00
2023-11-03T16:28:02.405Z,100.00
2023-11-03T16:30:32.712Z,100.00
2023-11-03T16:33:01.995Z,100.00
2023-11-03T16:35:32.643Z,100.00
2023-11-03T16:37:59.751Z,100.00
2023-11-03T16:40:27.598Z,100.00
2023-11-03T16:42:54.907Z,100.00
2023-11-03T16:45:23.137Z,100.00
2023-11-03T16:47:50.067Z,100.00
2023-11-03T16:50:17.129Z,100.00
2023-11-03T16:52:43.934Z,100.00
2023-11-03T16:55:15.430Z,100.00
2023-11-03T16:57:42.939Z,100.00
2023-11-03T17:00:14.046Z,100.00
2023-11-03T17:02:45.067Z,100.00
2023-11-03T17:05:16.069Z,100.00
2023-11-03T17:07:43.777Z,100.00
2023-11-03T17:10:11.532Z,100.00
2023-11-03T17:12:46.280Z,100.00
2023-11-03T17:15:20.317Z,100.00
2023-11-03T17:17:47.069Z,100.00
2023-11-03T17:20:15.743Z,100.00
2023-11-03T17:22:44.628Z,100.00
2023-11-03T17:25:12.516Z,100.00
2023-11-03T17:27:40.020Z,100.00
2023-11-03T17:30:09.284Z,100.00
2023-11-03T17:32:36.127Z,100.00
2023-11-03T17:35:06.591Z,100.00
2023-11-03T17:37:33.513Z,100.00
2023-11-03T17:40:00.577Z,100.00
2023-11-03T17:42:27.463Z,100.00
2023-11-03T17:44:55.292Z,100.00
2023-11-03T17:47:23.266Z,100.00
2023-11-03T17:49:50.319Z,100.00
2023-11-03T17:52:17.238Z,100.00
2023-11-03T17:54:44.258Z,100.00
2023-11-03T17:57:11.348Z,100.00
2023-11-03T17:59:38.595Z,100.00
2023-11-03T18:02:07.395Z,100.00
2023-11-03T18:04:34.733Z,100.00
2023-11-03T18:07:05.622Z,100.00
2023-11-03T18:09:32.623Z,100.00
2023-11-03T18:11:59.460Z,100.00
2023-11-03T18:14:26.457Z,100.00
2023-11-03T18:16:53.148Z,100.00
2023-11-03T18:19:20.324Z,100.00
2023-11-03T18:21:47.445Z,100.00
2023-11-03T18:24:14.812Z,100.00
2023-11-03T18:26:41.704Z,100.00
2023-11-03T18:29:08.700Z,100.00
2023-11-03T18:31:35.568Z,100.00
2023-11-03T18:34:02.746Z,100.00
2023-11-03T18:36:29.428Z,100.00
2023-11-03T18:38:56.494Z,100.00
2023-11-03T18:41:23.422Z,100.00
2023-11-03T18:43:50.476Z,100.00
2023-11-03T18:46:17.384Z,100.00
2023-11-03T18:48:44.342Z,100.00
2023-11-03T18:51:26.165Z,100.00
2023-11-03T18:55:23.378Z,100.00
2023-11-03T19:02:19.268Z,100.00
2023-11-03T19:07:32.538Z,100.00
2023-11-03T19:09:54.769Z,100.00
2023-11-03T19:12:21.897Z,100.00
2023-11-03T19:14:49.284Z,100.00
2023-11-03T19:17:16.005Z,100.00
2023-11-03T19:19:43.111Z,100.00
2023-11-03T19:22:11.857Z,100.00
2023-11-03T19:24:43.032Z,100.00
2023-11-03T19:27:11.679Z,100.00
2023-11-03T19:29:39.642Z,100.00
2023-11-03T19:32:09.660Z,100.00
2023-11-03T19:34:43.634Z,100.00
2023-11-03T19:37:11.821Z,100.00
2023-11-03T19:39:39.489Z,100.00
2023-11-03T19:42:08.296Z,100.00
2023-11-03T19:44:36.356Z,100.00
2023-11-03T19:47:05.833Z,100.00
2023-11-03T19:49:34.618Z,100.00
2023-11-03T19:52:02.034Z,100.00
2023-11-03T19:54:29.425Z,100.00
2023-11-03T19:56:56.618Z,100.00
2023-11-03T19:59:24.702Z,100.00
2023-11-03T20:01:51.448Z,100.00
2023-11-03T20:04:18.773Z,100.00
2023-11-03T20:06:47.159Z,100.00
2023-11-03T20:09:14.367Z,100.00
2023-11-03T20:11:41.180Z,100.00
2023-11-03T20:14:08.279Z,100.00
2023-11-03T20:16:35.612Z,100.00
2023-11-03T20:19:04.797Z,100.00
2023-11-03T20:21:31.599Z,100.00
2023-11-03T20:23:58.620Z,100.00
2023-11-03T20:26:25.997Z,100.00
2023-11-03T20:28:53.367Z,100.00
2023-11-03T20:31:20.198Z,100.00
2023-11-03T20:33:49.184Z,100.00
2023-11-03T20:36:15.966Z,100.00
2023-11-03T20:38:45.669Z,100.00
2023-11-03T20:41:12.340Z,100.00
2023-11-03T20:43:39.936Z,100.00
2023-11-03T20:46:06.740Z,100.00
2023-11-03T20:48:34.670Z,100.00
2023-11-03T20:51:02.607Z,100.00
2023-11-03T20:53:29.949Z,100.00
2023-11-03T20:55:56.760Z,100.00
2023-11-03T20:58:24.350Z,100.00
2023-11-03T21:00:52.581Z,100.00
2023-11-03T21:03:19.884Z,100.00
2023-11-03T21:05:46.740Z,100.00
2023-11-03T21:08:15.143Z,100.00
2023-11-03T21:10:42.109Z,100.00
2023-11-03T21:13:09.880Z,100.00
2023-11-03T21:15:37.628Z,100.00
2023-11-03T21:18:04.888Z,100.00
2023-11-03T21:20:31.814Z,100.00
2023-11-03T21:22:59.130Z,100.00
2023-11-03T21:25:25.937Z,100.00
2023-11-03T21:27:54.068Z,100.00
2023-11-03T21:30:21.645Z,100.00
2023-11-03T21:32:48.613Z,100.00
2023-11-03T21:35:15.605Z,100.00
2023-11-03T21:37:42.715Z,100.00
2023-11-03T21:40:16.114Z,100.00
2023-11-03T21:42:43.747Z,100.00
2023-11-03T21:45:11.100Z,100.00
2023-11-03T21:47:38.699Z,100.00
2023-11-03T21:50:07.874Z,100.00
2023-11-03T21:52:34.905Z,100.00
2023-11-03T21:55:01.744Z,100.00
2023-11-03T21:57:28.852Z,100.00
2023-11-03T21:59:55.637Z,100.00
2023-11-03T22:02:22.854Z,100.00
2023-11-03T22:04:49.886Z,100.00
2023-11-03T22:07:16.945Z,100.00
2023-11-03T22:09:44.258Z,100.00
2023-11-03T22:12:11.612Z,100.00
2023-11-03T22:14:38.360Z,100.00
2023-11-03T22:17:05.277Z,100.00
2023-11-03T22:19:32.018Z,100.00
2023-11-03T22:21:59.868Z,100.00
2023-11-03T22:24:26.613Z,100.00
2023-11-03T22:26:53.549Z,100.00
2023-11-03T22:29:20.502Z,100.00
2023-11-03T22:31:50.725Z,100.00
2023-11-03T22:34:19.343Z,100.00
2023-11-03T22:36:46.717Z,100.00
2023-11-03T22:39:20.896Z,100.00
2023-11-03T22:41:48.382Z,100.00
2023-11-03T22:44:15.554Z,100.00
2023-11-03T22:46:42.495Z,100.00
2023-11-03T22:49:10.002Z,100.00
2023-11-03T22:51:37.335Z,100.00
2023-11-03T22:54:04.425Z,100.00
2023-11-03T22:56:32.201Z,100.00
2023-11-03T22:58:59.847Z,100.00
2023-11-03T23:01:26.869Z,100.00
2023-11-03T23:03:53.758Z,100.00
2023-11-03T23:06:22.795Z,100.00
2023-11-03T23:08:49.856Z,100.00
2023-11-03T23:11:20.479Z,100.00
2023-11-03T23:13:48.984Z,100.00
2023-11-03T23:16:15.932Z,100.00
2023-11-03T23:18:42.794Z,100.00
2023-11-03T23:21:12.713Z,100.00
2023-11-03T23:23:41.078Z,100.00
2023-11-03T23:26:08.074Z,100.00
2023-11-03T23:28:34.719Z,100.00
2023-11-03T23:31:05.101Z,100.00
2023-11-03T23:33:32.526Z,100.00
2023-11-03T23:35:59.771Z,100.00
2023-11-03T23:38:26.475Z,100.00
2023-11-03T23:40:56.375Z,100.00
2023-11-03T23:43:23.049Z,100.00
2023-11-03T23:45:51.854Z,100.00
2023-11-03T23:48:21.211Z,100.00
2023-11-03T23:50:48.594Z,100.00
2023-11-03T23:53:15.725Z,100.00
2023-11-03T23:55:43.251Z,100.00
2023-11-03T23:58:10.029Z,100.00
